sensor_id;sensor_type;location;lat;lon;timestamp;P1;durP1;ratioP1;P2;durP2;ratioP2
21128;SDS011;10722;51.910;8.352;2024-01-10T00:02:10;25.63;;;10.43;;
21128;SDS011;10722;51.910;8.352;2024-01-10T00:04:54;24.17;;;9.90;;
21128;SDS011;10722;51.910;8.352;2024-01-10T00:07:40;23.43;;;9.87;;
21128;SDS011;10722;51.910;8.352;2024-01-10T00:10:25;22.50;;;9.33;;
21128;SDS011;10722;51.910;8.352;2024-01-10T00:13:09;24.20;;;9.30;;
21128;SDS011;10722;51.910;8.352;2024-01-10T00:15:54;22.30;;;8.97;;
21128;SDS011;10722;51.910;8.352;2024-01-10T00:18:39;26.07;;;10.13;;
21128;SDS011;10722;51.910;8.352;2024-01-10T00:21:24;25.23;;;9.90;;
21128;SDS011;10722;51.910;8.352;2024-01-10T00:24:09;26.40;;;9.83;;
21128;SDS011;10722;51.910;8.352;2024-01-10T00:26:54;25.23;;;10.27;;
21128;SDS011;10722;51.910;8.352;2024-01-10T00:29:39;24.70;;;9.57;;
21128;SDS011;10722;51.910;8.352;2024-01-10T00:32:24;25.03;;;11.17;;
21128;SDS011;10722;51.910;8.352;2024-01-10T00:35:09;23.00;;;9.50;;
21128;SDS011;10722;51.910;8.352;2024-01-10T00:37:55;25.03;;;9.50;;
21128;SDS011;10722;51.910;8.352;2024-01-10T00:40:40;22.47;;;9.30;;
21128;SDS011;10722;51.910;8.352;2024-01-10T00:43:25;26.03;;;9.83;;
21128;SDS011;10722;51.910;8.352;2024-01-10T00:46:10;28.43;;;10.80;;
21128;SDS011;10722;51.910;8.352;2024-01-10T00:48:55;25.13;;;10.30;;
21128;SDS011;10722;51.910;8.352;2024-01-10T00:51:40;23.53;;;10.60;;
21128;SDS011;10722;51.910;8.352;2024-01-10T00:54:25;24.43;;;10.50;;
21128;SDS011;10722;51.910;8.352;2024-01-10T00:57:10;24.00;;;10.00;;
21128;SDS011;10722;51.910;8.352;2024-01-10T00:59:55;23.63;;;9.80;;
21128;SDS011;10722;51.910;8.352;2024-01-10T01:02:40;24.20;;;10.53;;
21128;SDS011;10722;51.910;8.352;2024-01-10T01:05:26;26.07;;;10.87;;
21128;SDS011;10722;51.910;8.352;2024-01-10T01:08:11;25.17;;;10.67;;
21128;SDS011;10722;51.910;8.352;2024-01-10T01:10:57;26.57;;;10.03;;
21128;SDS011;10722;51.910;8.352;2024-01-10T01:13:42;26.33;;;10.00;;
21128;SDS011;10722;51.910;8.352;2024-01-10T01:16:27;24.03;;;10.23;;
21128;SDS011;10722;51.910;8.352;2024-01-10T01:19:12;28.47;;;10.73;;
21128;SDS011;10722;51.910;8.352;2024-01-10T01:21:57;26.30;;;11.10;;
21128;SDS011;10722;51.910;8.352;2024-01-10T01:24:42;24.60;;;10.07;;
21128;SDS011;10722;51.910;8.352;2024-01-10T01:27:28;23.87;;;10.07;;
21128;SDS011;10722;51.910;8.352;2024-01-10T01:30:13;26.60;;;10.23;;
21128;SDS011;10722;51.910;8.352;2024-01-10T01:32:57;26.53;;;10.87;;
21128;SDS011;10722;51.910;8.352;2024-01-10T01:35:43;24.87;;;10.10;;
21128;SDS011;10722;51.910;8.352;2024-01-10T01:38:28;26.40;;;10.50;;
21128;SDS011;10722;51.910;8.352;2024-01-10T01:41:13;24.77;;;10.20;;
21128;SDS011;10722;51.910;8.352;2024-01-10T01:43:58;27.13;;;10.90;;
21128;SDS011;10722;51.910;8.352;2024-01-10T01:46:43;24.50;;;10.03;;
21128;SDS011;10722;51.910;8.352;2024-01-10T01:49:29;24.70;;;11.00;;
21128;SDS011;10722;51.910;8.352;2024-01-10T01:52:14;26.60;;;10.67;;
21128;SDS011;10722;51.910;8.352;2024-01-10T01:55:00;25.77;;;11.10;;
21128;SDS011;10722;51.910;8.352;2024-01-10T01:57:46;26.50;;;11.07;;
21128;SDS011;10722;51.910;8.352;2024-01-10T02:00:31;33.93;;;12.50;;
21128;SDS011;10722;51.910;8.352;2024-01-10T02:03:16;36.13;;;13.30;;
21128;SDS011;10722;51.910;8.352;2024-01-10T02:06:01;34.83;;;12.90;;
21128;SDS011;10722;51.910;8.352;2024-01-10T02:08:46;34.10;;;12.50;;
21128;SDS011;10722;51.910;8.352;2024-01-10T02:11:31;30.50;;;11.90;;
21128;SDS011;10722;51.910;8.352;2024-01-10T02:14:17;33.30;;;12.97;;
21128;SDS011;10722;51.910;8.352;2024-01-10T02:17:02;33.80;;;13.07;;
21128;SDS011;10722;51.910;8.352;2024-01-10T02:19:47;33.83;;;13.03;;
21128;SDS011;10722;51.910;8.352;2024-01-10T02:22:32;35.67;;;13.47;;
21128;SDS011;10722;51.910;8.352;2024-01-10T02:25:17;33.73;;;13.47;;
21128;SDS011;10722;51.910;8.352;2024-01-10T02:28:02;34.27;;;13.20;;
21128;SDS011;10722;51.910;8.352;2024-01-10T02:30:48;32.57;;;13.47;;
21128;SDS011;10722;51.910;8.352;2024-01-10T02:33:33;32.47;;;12.97;;
21128;SDS011;10722;51.910;8.352;2024-01-10T02:36:18;29.30;;;11.57;;
21128;SDS011;10722;51.910;8.352;2024-01-10T02:39:03;29.03;;;12.00;;
21128;SDS011;10722;51.910;8.352;2024-01-10T02:41:48;27.90;;;11.93;;
21128;SDS011;10722;51.910;8.352;2024-01-10T02:44:33;26.90;;;12.13;;
21128;SDS011;10722;51.910;8.352;2024-01-10T02:47:18;29.43;;;11.40;;
21128;SDS011;10722;51.910;8.352;2024-01-10T02:50:04;34.37;;;13.47;;
21128;SDS011;10722;51.910;8.352;2024-01-10T02:52:50;36.13;;;14.57;;
21128;SDS011;10722;51.910;8.352;2024-01-10T02:55:36;32.23;;;13.37;;
21128;SDS011;10722;51.910;8.352;2024-01-10T02:58:21;32.23;;;12.83;;
21128;SDS011;10722;51.910;8.352;2024-01-10T03:01:06;32.00;;;12.80;;
21128;SDS011;10722;51.910;8.352;2024-01-10T03:03:51;31.80;;;12.80;;
21128;SDS011;10722;51.910;8.352;2024-01-10T03:06:37;31.63;;;12.33;;
21128;SDS011;10722;51.910;8.352;2024-01-10T03:09:22;33.87;;;13.17;;
21128;SDS011;10722;51.910;8.352;2024-01-10T03:12:08;29.93;;;12.37;;
21128;SDS011;10722;51.910;8.352;2024-01-10T03:14:55;29.60;;;12.57;;
21128;SDS011;10722;51.910;8.352;2024-01-10T03:17:41;28.07;;;12.97;;
21128;SDS011;10722;51.910;8.352;2024-01-10T03:20:26;29.63;;;13.00;;
21128;SDS011;10722;51.910;8.352;2024-01-10T03:23:11;28.47;;;12.07;;
21128;SDS011;10722;51.910;8.352;2024-01-10T03:25:57;30.53;;;12.60;;
21128;SDS011;10722;51.910;8.352;2024-01-10T03:28:42;30.03;;;13.23;;
21128;SDS011;10722;51.910;8.352;2024-01-10T03:31:28;30.80;;;12.53;;
21128;SDS011;10722;51.910;8.352;2024-01-10T03:34:14;28.00;;;12.60;;
21128;SDS011;10722;51.910;8.352;2024-01-10T03:36:59;29.63;;;12.60;;
21128;SDS011;10722;51.910;8.352;2024-01-10T03:39:44;29.20;;;12.73;;
21128;SDS011;10722;51.910;8.352;2024-01-10T03:42:30;28.93;;;12.13;;
21128;SDS011;10722;51.910;8.352;2024-01-10T03:45:15;26.27;;;11.63;;
21128;SDS011;10722;51.910;8.352;2024-01-10T03:48:03;29.97;;;12.50;;
21128;SDS011;10722;51.910;8.352;2024-01-10T03:50:49;29.33;;;13.00;;
21128;SDS011;10722;51.910;8.352;2024-01-10T03:53:34;30.77;;;12.70;;
21128;SDS011;10722;51.910;8.352;2024-01-10T03:56:19;29.37;;;12.10;;
21128;SDS011;10722;51.910;8.352;2024-01-10T03:59:04;30.47;;;12.80;;
21128;SDS011;10722;51.910;8.352;2024-01-10T04:01:50;28.90;;;12.43;;
21128;SDS011;10722;51.910;8.352;2024-01-10T04:04:36;29.10;;;12.40;;
21128;SDS011;10722;51.910;8.352;2024-01-10T04:07:22;30.30;;;12.60;;
21128;SDS011;10722;51.910;8.352;2024-01-10T04:10:07;31.33;;;12.63;;
21128;SDS011;10722;51.910;8.352;2024-01-10T04:12:52;29.40;;;12.87;;
21128;SDS011;10722;51.910;8.352;2024-01-10T04:15:37;28.33;;;13.00;;
21128;SDS011;10722;51.910;8.352;2024-01-10T04:18:22;30.13;;;12.33;;
21128;SDS011;10722;51.910;8.352;2024-01-10T04:21:07;28.33;;;12.83;;
21128;SDS011;10722;51.910;8.352;2024-01-10T04:23:53;28.20;;;12.33;;
21128;SDS011;10722;51.910;8.352;2024-01-10T04:26:38;30.70;;;13.30;;
21128;SDS011;10722;51.910;8.352;2024-01-10T04:29:23;29.33;;;12.90;;
21128;SDS011;10722;51.910;8.352;2024-01-10T04:32:08;31.00;;;12.70;;
21128;SDS011;10722;51.910;8.352;2024-01-10T04:34:53;32.17;;;13.00;;
21128;SDS011;10722;51.910;8.352;2024-01-10T04:37:38;31.40;;;13.30;;
21128;SDS011;10722;51.910;8.352;2024-01-10T04:40:24;31.03;;;12.87;;
21128;SDS011;10722;51.910;8.352;2024-01-10T04:43:08;30.63;;;13.23;;
21128;SDS011;10722;51.910;8.352;2024-01-10T04:45:53;30.50;;;13.00;;
21128;SDS011;10722;51.910;8.352;2024-01-10T04:48:38;33.30;;;13.60;;
21128;SDS011;10722;51.910;8.352;2024-01-10T04:51:24;30.83;;;13.27;;
21128;SDS011;10722;51.910;8.352;2024-01-10T04:54:09;31.13;;;13.37;;
21128;SDS011;10722;51.910;8.352;2024-01-10T04:56:54;29.90;;;13.50;;
21128;SDS011;10722;51.910;8.352;2024-01-10T04:59:39;31.63;;;13.90;;
21128;SDS011;10722;51.910;8.352;2024-01-10T05:02:24;31.17;;;13.43;;
21128;SDS011;10722;51.910;8.352;2024-01-10T05:05:09;31.30;;;13.53;;
21128;SDS011;10722;51.910;8.352;2024-01-10T05:07:55;31.70;;;13.77;;
21128;SDS011;10722;51.910;8.352;2024-01-10T05:10:40;46.70;;;19.83;;
21128;SDS011;10722;51.910;8.352;2024-01-10T05:13:25;35.50;;;16.23;;
21128;SDS011;10722;51.910;8.352;2024-01-10T05:16:10;40.43;;;16.43;;
21128;SDS011;10722;51.910;8.352;2024-01-10T05:18:55;35.50;;;15.83;;
21128;SDS011;10722;51.910;8.352;2024-01-10T05:21:40;36.03;;;15.63;;
21128;SDS011;10722;51.910;8.352;2024-01-10T05:24:26;36.40;;;16.20;;
21128;SDS011;10722;51.910;8.352;2024-01-10T05:27:11;35.53;;;16.13;;
21128;SDS011;10722;51.910;8.352;2024-01-10T05:29:55;35.30;;;15.67;;
21128;SDS011;10722;51.910;8.352;2024-01-10T05:32:40;36.70;;;15.73;;
21128;SDS011;10722;51.910;8.352;2024-01-10T05:35:25;35.23;;;16.03;;
21128;SDS011;10722;51.910;8.352;2024-01-10T05:38:11;35.97;;;16.07;;
21128;SDS011;10722;51.910;8.352;2024-01-10T05:40:55;34.37;;;14.60;;
21128;SDS011;10722;51.910;8.352;2024-01-10T05:43:41;34.50;;;15.10;;
21128;SDS011;10722;51.910;8.352;2024-01-10T05:46:26;34.10;;;13.90;;
21128;SDS011;10722;51.910;8.352;2024-01-10T05:49:11;31.93;;;13.90;;
21128;SDS011;10722;51.910;8.352;2024-01-10T05:51:56;35.50;;;14.33;;
21128;SDS011;10722;51.910;8.352;2024-01-10T05:54:41;34.80;;;14.03;;
21128;SDS011;10722;51.910;8.352;2024-01-10T05:57:26;32.50;;;14.27;;
21128;SDS011;10722;51.910;8.352;2024-01-10T06:00:11;34.77;;;14.67;;
21128;SDS011;10722;51.910;8.352;2024-01-10T06:02:57;35.37;;;15.20;;
21128;SDS011;10722;51.910;8.352;2024-01-10T06:05:42;32.37;;;13.53;;
21128;SDS011;10722;51.910;8.352;2024-01-10T06:08:28;35.50;;;14.67;;
21128;SDS011;10722;51.910;8.352;2024-01-10T06:11:13;35.43;;;15.27;;
21128;SDS011;10722;51.910;8.352;2024-01-10T06:13:58;34.97;;;15.03;;
21128;SDS011;10722;51.910;8.352;2024-01-10T06:16:44;36.90;;;14.90;;
21128;SDS011;10722;51.910;8.352;2024-01-10T06:19:29;35.33;;;14.53;;
21128;SDS011;10722;51.910;8.352;2024-01-10T06:22:15;37.40;;;16.27;;
21128;SDS011;10722;51.910;8.352;2024-01-10T06:25:00;38.50;;;15.93;;
21128;SDS011;10722;51.910;8.352;2024-01-10T06:27:45;38.97;;;15.73;;
21128;SDS011;10722;51.910;8.352;2024-01-10T06:30:30;40.13;;;16.27;;
21128;SDS011;10722;51.910;8.352;2024-01-10T06:33:15;39.77;;;15.90;;
21128;SDS011;10722;51.910;8.352;2024-01-10T06:36:00;43.63;;;17.27;;
21128;SDS011;10722;51.910;8.352;2024-01-10T06:38:45;36.97;;;16.50;;
21128;SDS011;10722;51.910;8.352;2024-01-10T06:41:31;37.70;;;15.70;;
21128;SDS011;10722;51.910;8.352;2024-01-10T06:44:16;37.43;;;16.73;;
21128;SDS011;10722;51.910;8.352;2024-01-10T06:47:01;37.30;;;16.37;;
21128;SDS011;10722;51.910;8.352;2024-01-10T06:49:46;36.13;;;16.40;;
21128;SDS011;10722;51.910;8.352;2024-01-10T06:52:31;37.93;;;17.00;;
21128;SDS011;10722;51.910;8.352;2024-01-10T06:55:16;37.10;;;16.67;;
21128;SDS011;10722;51.910;8.352;2024-01-10T06:58:01;37.20;;;16.27;;
21128;SDS011;10722;51.910;8.352;2024-01-10T07:00:46;35.00;;;15.60;;
21128;SDS011;10722;51.910;8.352;2024-01-10T07:03:31;38.63;;;16.77;;
21128;SDS011;10722;51.910;8.352;2024-01-10T07:06:16;40.27;;;15.90;;
21128;SDS011;10722;51.910;8.352;2024-01-10T07:09:01;43.43;;;17.93;;
21128;SDS011;10722;51.910;8.352;2024-01-10T07:11:47;41.87;;;17.10;;
21128;SDS011;10722;51.910;8.352;2024-01-10T07:14:32;35.37;;;16.33;;
21128;SDS011;10722;51.910;8.352;2024-01-10T07:17:17;44.30;;;17.47;;
21128;SDS011;10722;51.910;8.352;2024-01-10T07:20:02;45.70;;;19.63;;
21128;SDS011;10722;51.910;8.352;2024-01-10T07:22:48;40.23;;;17.43;;
21128;SDS011;10722;51.910;8.352;2024-01-10T07:25:33;43.63;;;17.47;;
21128;SDS011;10722;51.910;8.352;2024-01-10T07:28:18;37.37;;;17.17;;
21128;SDS011;10722;51.910;8.352;2024-01-10T07:31:03;44.73;;;18.07;;
21128;SDS011;10722;51.910;8.352;2024-01-10T07:33:49;40.30;;;17.20;;
21128;SDS011;10722;51.910;8.352;2024-01-10T07:36:38;40.67;;;17.13;;
21128;SDS011;10722;51.910;8.352;2024-01-10T07:39:26;37.17;;;17.10;;
21128;SDS011;10722;51.910;8.352;2024-01-10T07:42:11;39.47;;;16.90;;
21128;SDS011;10722;51.910;8.352;2024-01-10T07:44:56;38.37;;;16.80;;
21128;SDS011;10722;51.910;8.352;2024-01-10T07:47:40;39.43;;;17.17;;
21128;SDS011;10722;51.910;8.352;2024-01-10T07:50:25;41.33;;;19.23;;
21128;SDS011;10722;51.910;8.352;2024-01-10T07:53:10;38.80;;;17.87;;
21128;SDS011;10722;51.910;8.352;2024-01-10T07:55:56;42.13;;;17.87;;
21128;SDS011;10722;51.910;8.352;2024-01-10T07:58:41;39.77;;;18.60;;
21128;SDS011;10722;51.910;8.352;2024-01-10T08:01:26;41.60;;;19.90;;
21128;SDS011;10722;51.910;8.352;2024-01-10T08:04:12;45.73;;;19.83;;
21128;SDS011;10722;51.910;8.352;2024-01-10T08:07:00;44.40;;;20.13;;
21128;SDS011;10722;51.910;8.352;2024-01-10T08:09:45;78.00;;;33.57;;
21128;SDS011;10722;51.910;8.352;2024-01-10T08:12:30;48.53;;;21.10;;
21128;SDS011;10722;51.910;8.352;2024-01-10T08:15:15;43.10;;;18.80;;
21128;SDS011;10722;51.910;8.352;2024-01-10T08:18:00;44.07;;;18.43;;
21128;SDS011;10722;51.910;8.352;2024-01-10T08:20:45;41.27;;;18.47;;
21128;SDS011;10722;51.910;8.352;2024-01-10T08:23:30;44.07;;;20.20;;
21128;SDS011;10722;51.910;8.352;2024-01-10T08:26:15;45.50;;;20.23;;
21128;SDS011;10722;51.910;8.352;2024-01-10T08:29:00;44.77;;;20.07;;
21128;SDS011;10722;51.910;8.352;2024-01-10T08:31:46;43.20;;;19.23;;
21128;SDS011;10722;51.910;8.352;2024-01-10T08:34:31;42.43;;;18.97;;
21128;SDS011;10722;51.910;8.352;2024-01-10T08:37:16;41.30;;;19.93;;
21128;SDS011;10722;51.910;8.352;2024-01-10T08:40:01;51.27;;;25.33;;
21128;SDS011;10722;51.910;8.352;2024-01-10T08:42:46;48.63;;;21.27;;
21128;SDS011;10722;51.910;8.352;2024-01-10T08:45:31;41.93;;;19.90;;
21128;SDS011;10722;51.910;8.352;2024-01-10T08:48:17;43.23;;;19.23;;
21128;SDS011;10722;51.910;8.352;2024-01-10T08:51:02;42.07;;;18.73;;
21128;SDS011;10722;51.910;8.352;2024-01-10T08:53:47;44.47;;;19.13;;
21128;SDS011;10722;51.910;8.352;2024-01-10T08:56:32;45.23;;;19.33;;
21128;SDS011;10722;51.910;8.352;2024-01-10T08:59:18;40.40;;;18.93;;
21128;SDS011;10722;51.910;8.352;2024-01-10T09:02:04;44.83;;;18.80;;
21128;SDS011;10722;51.910;8.352;2024-01-10T09:04:49;42.13;;;18.57;;
21128;SDS011;10722;51.910;8.352;2024-01-10T09:07:34;42.57;;;18.73;;
21128;SDS011;10722;51.910;8.352;2024-01-10T09:10:19;40.47;;;19.13;;
21128;SDS011;10722;51.910;8.352;2024-01-10T09:13:04;42.13;;;19.17;;
21128;SDS011;10722;51.910;8.352;2024-01-10T09:15:50;43.60;;;19.30;;
21128;SDS011;10722;51.910;8.352;2024-01-10T09:18:35;37.87;;;18.70;;
21128;SDS011;10722;51.910;8.352;2024-01-10T09:21:20;39.20;;;18.50;;
21128;SDS011;10722;51.910;8.352;2024-01-10T09:24:05;44.87;;;19.83;;
21128;SDS011;10722;51.910;8.352;2024-01-10T09:27:05;41.07;;;19.37;;
21128;SDS011;10722;51.910;8.352;2024-01-10T09:29:50;44.90;;;19.23;;
21128;SDS011;10722;51.910;8.352;2024-01-10T09:32:35;47.73;;;20.07;;
21128;SDS011;10722;51.910;8.352;2024-01-10T09:35:22;49.70;;;21.10;;
21128;SDS011;10722;51.910;8.352;2024-01-10T09:38:07;63.00;;;26.67;;
21128;SDS011;10722;51.910;8.352;2024-01-10T09:40:59;58.57;;;24.40;;
21128;SDS011;10722;51.910;8.352;2024-01-10T09:43:45;45.17;;;20.63;;
21128;SDS011;10722;51.910;8.352;2024-01-10T09:46:30;37.93;;;17.97;;
21128;SDS011;10722;51.910;8.352;2024-01-10T09:49:17;38.73;;;16.73;;
21128;SDS011;10722;51.910;8.352;2024-01-10T09:52:05;45.27;;;17.43;;
21128;SDS011;10722;51.910;8.352;2024-01-10T09:54:56;42.50;;;19.00;;
21128;SDS011;10722;51.910;8.352;2024-01-10T09:57:42;41.60;;;18.97;;
21128;SDS011;10722;51.910;8.352;2024-01-10T10:00:27;39.10;;;18.10;;
21128;SDS011;10722;51.910;8.352;2024-01-10T10:03:13;43.50;;;21.57;;
21128;SDS011;10722;51.910;8.352;2024-01-10T10:06:00;41.07;;;18.53;;
21128;SDS011;10722;51.910;8.352;2024-01-10T10:08:46;43.03;;;18.40;;
21128;SDS011;10722;51.910;8.352;2024-01-10T10:11:31;43.40;;;17.43;;
21128;SDS011;10722;51.910;8.352;2024-01-10T10:14:18;36.03;;;16.57;;
21128;SDS011;10722;51.910;8.352;2024-01-10T10:17:13;39.30;;;17.23;;
21128;SDS011;10722;51.910;8.352;2024-01-10T10:20:02;36.73;;;17.90;;
21128;SDS011;10722;51.910;8.352;2024-01-10T10:23:06;36.13;;;16.90;;
21128;SDS011;10722;51.910;8.352;2024-01-10T10:25:53;36.20;;;17.77;;
21128;SDS011;10722;51.910;8.352;2024-01-10T10:28:38;37.10;;;17.90;;
21128;SDS011;10722;51.910;8.352;2024-01-10T10:31:24;34.47;;;17.73;;
21128;SDS011;10722;51.910;8.352;2024-01-10T10:34:09;36.33;;;17.60;;
21128;SDS011;10722;51.910;8.352;2024-01-10T10:36:55;37.40;;;17.40;;
21128;SDS011;10722;51.910;8.352;2024-01-10T10:39:40;39.63;;;17.60;;
21128;SDS011;10722;51.910;8.352;2024-01-10T10:42:25;36.23;;;17.80;;
21128;SDS011;10722;51.910;8.352;2024-01-10T10:45:14;35.57;;;16.80;;
21128;SDS011;10722;51.910;8.352;2024-01-10T10:48:03;37.40;;;17.17;;
21128;SDS011;10722;51.910;8.352;2024-01-10T10:51:02;36.27;;;16.87;;
21128;SDS011;10722;51.910;8.352;2024-01-10T10:53:49;37.33;;;17.87;;
21128;SDS011;10722;51.910;8.352;2024-01-10T10:56:35;36.70;;;17.83;;
21128;SDS011;10722;51.910;8.352;2024-01-10T10:59:22;44.17;;;19.40;;
21128;SDS011;10722;51.910;8.352;2024-01-10T11:02:10;41.87;;;19.27;;
21128;SDS011;10722;51.910;8.352;2024-01-10T11:04:55;42.23;;;18.37;;
21128;SDS011;10722;51.910;8.352;2024-01-10T11:07:41;37.83;;;16.57;;
21128;SDS011;10722;51.910;8.352;2024-01-10T11:10:28;35.87;;;18.37;;
21128;SDS011;10722;51.910;8.352;2024-01-10T11:16:56;37.10;;;16.60;;
21128;SDS011;10722;51.910;8.352;2024-01-10T11:20:05;41.30;;;18.37;;
21128;SDS011;10722;51.910;8.352;2024-01-10T11:26:09;43.23;;;19.53;;
21128;SDS011;10722;51.910;8.352;2024-01-10T11:28:56;50.30;;;22.50;;
21128;SDS011;10722;51.910;8.352;2024-01-10T11:31:41;45.97;;;22.10;;
21128;SDS011;10722;51.910;8.352;2024-01-10T11:34:35;34.27;;;16.43;;
21128;SDS011;10722;51.910;8.352;2024-01-10T11:37:20;35.57;;;16.87;;
21128;SDS011;10722;51.910;8.352;2024-01-10T11:40:07;33.47;;;16.57;;
21128;SDS011;10722;51.910;8.352;2024-01-10T11:42:52;32.53;;;15.73;;
21128;SDS011;10722;51.910;8.352;2024-01-10T11:45:37;39.17;;;18.47;;
21128;SDS011;10722;51.910;8.352;2024-01-10T11:48:29;35.80;;;16.77;;
21128;SDS011;10722;51.910;8.352;2024-01-10T11:51:16;35.87;;;16.63;;
21128;SDS011;10722;51.910;8.352;2024-01-10T11:54:01;33.33;;;15.73;;
21128;SDS011;10722;51.910;8.352;2024-01-10T11:56:46;32.37;;;15.53;;
21128;SDS011;10722;51.910;8.352;2024-01-10T11:59:31;38.57;;;18.47;;
21128;SDS011;10722;51.910;8.352;2024-01-10T12:02:17;36.13;;;18.27;;
21128;SDS011;10722;51.910;8.352;2024-01-10T12:05:03;33.23;;;16.37;;
21128;SDS011;10722;51.910;8.352;2024-01-10T12:07:50;40.53;;;19.57;;
21128;SDS011;10722;51.910;8.352;2024-01-10T12:10:36;48.23;;;22.80;;
21128;SDS011;10722;51.910;8.352;2024-01-10T12:13:21;50.60;;;21.60;;
21128;SDS011;10722;51.910;8.352;2024-01-10T12:16:06;45.70;;;19.80;;
21128;SDS011;10722;51.910;8.352;2024-01-10T12:18:51;58.87;;;23.50;;
21128;SDS011;10722;51.910;8.352;2024-01-10T12:21:36;40.63;;;18.50;;
21128;SDS011;10722;51.910;8.352;2024-01-10T12:24:21;34.13;;;16.57;;
21128;SDS011;10722;51.910;8.352;2024-01-10T12:27:05;33.03;;;15.50;;
21128;SDS011;10722;51.910;8.352;2024-01-10T12:29:51;33.13;;;15.73;;
21128;SDS011;10722;51.910;8.352;2024-01-10T12:32:38;33.93;;;15.77;;
21128;SDS011;10722;51.910;8.352;2024-01-10T12:35:24;34.23;;;16.50;;
21128;SDS011;10722;51.910;8.352;2024-01-10T12:38:12;37.30;;;17.23;;
21128;SDS011;10722;51.910;8.352;2024-01-10T12:40:57;33.63;;;15.87;;
21128;SDS011;10722;51.910;8.352;2024-01-10T12:43:43;38.13;;;16.50;;
21128;SDS011;10722;51.910;8.352;2024-01-10T12:46:33;33.60;;;16.20;;
21128;SDS011;10722;51.910;8.352;2024-01-10T12:49:19;33.87;;;16.17;;
21128;SDS011;10722;51.910;8.352;2024-01-10T12:52:04;34.13;;;16.07;;
21128;SDS011;10722;51.910;8.352;2024-01-10T12:54:56;35.23;;;16.50;;
21128;SDS011;10722;51.910;8.352;2024-01-10T12:57:41;35.40;;;17.73;;
21128;SDS011;10722;51.910;8.352;2024-01-10T13:00:25;33.60;;;16.50;;
21128;SDS011;10722;51.910;8.352;2024-01-10T13:03:10;40.20;;;18.40;;
21128;SDS011;10722;51.910;8.352;2024-01-10T13:05:55;42.53;;;19.13;;
21128;SDS011;10722;51.910;8.352;2024-01-10T13:08:40;49.60;;;21.37;;
21128;SDS011;10722;51.910;8.352;2024-01-10T13:11:26;50.40;;;21.43;;
21128;SDS011;10722;51.910;8.352;2024-01-10T13:14:11;50.27;;;22.67;;
21128;SDS011;10722;51.910;8.352;2024-01-10T13:16:56;32.93;;;17.03;;
21128;SDS011;10722;51.910;8.352;2024-01-10T13:19:44;35.67;;;17.20;;
21128;SDS011;10722;51.910;8.352;2024-01-10T13:22:29;34.37;;;17.27;;
21128;SDS011;10722;51.910;8.352;2024-01-10T13:25:14;33.70;;;17.10;;
21128;SDS011;10722;51.910;8.352;2024-01-10T13:27:59;37.27;;;17.40;;
21128;SDS011;10722;51.910;8.352;2024-01-10T13:30:45;37.37;;;19.17;;
21128;SDS011;10722;51.910;8.352;2024-01-10T13:33:30;34.63;;;16.87;;
21128;SDS011;10722;51.910;8.352;2024-01-10T13:36:15;34.23;;;17.83;;
21128;SDS011;10722;51.910;8.352;2024-01-10T13:39:00;32.70;;;16.47;;
21128;SDS011;10722;51.910;8.352;2024-01-10T13:41:46;33.67;;;17.33;;
21128;SDS011;10722;51.910;8.352;2024-01-10T13:44:33;35.97;;;16.87;;
21128;SDS011;10722;51.910;8.352;2024-01-10T13:47:18;35.20;;;17.67;;
21128;SDS011;10722;51.910;8.352;2024-01-10T13:50:04;37.50;;;18.37;;
21128;SDS011;10722;51.910;8.352;2024-01-10T13:52:51;36.80;;;17.93;;
21128;SDS011;10722;51.910;8.352;2024-01-10T13:55:36;36.17;;;19.00;;
21128;SDS011;10722;51.910;8.352;2024-01-10T13:58:21;39.53;;;19.03;;
21128;SDS011;10722;51.910;8.352;2024-01-10T14:01:06;35.87;;;18.60;;
21128;SDS011;10722;51.910;8.352;2024-01-10T14:03:51;35.70;;;18.83;;
21128;SDS011;10722;51.910;8.352;2024-01-10T14:06:36;40.30;;;18.90;;
21128;SDS011;10722;51.910;8.352;2024-01-10T14:09:22;41.33;;;19.53;;
21128;SDS011;10722;51.910;8.352;2024-01-10T14:12:07;38.50;;;19.70;;
21128;SDS011;10722;51.910;8.352;2024-01-10T14:14:52;37.63;;;19.90;;
21128;SDS011;10722;51.910;8.352;2024-01-10T14:17:37;42.60;;;20.80;;
21128;SDS011;10722;51.910;8.352;2024-01-10T14:20:21;38.80;;;19.13;;
21128;SDS011;10722;51.910;8.352;2024-01-10T14:23:06;43.53;;;21.67;;
21128;SDS011;10722;51.910;8.352;2024-01-10T14:25:52;42.63;;;21.10;;
21128;SDS011;10722;51.910;8.352;2024-01-10T14:28:36;37.80;;;20.50;;
21128;SDS011;10722;51.910;8.352;2024-01-10T14:31:21;39.93;;;19.47;;
21128;SDS011;10722;51.910;8.352;2024-01-10T14:34:22;42.30;;;20.67;;
21128;SDS011;10722;51.910;8.352;2024-01-10T14:37:08;36.87;;;19.07;;
21128;SDS011;10722;51.910;8.352;2024-01-10T14:39:53;40.67;;;20.07;;
21128;SDS011;10722;51.910;8.352;2024-01-10T14:42:38;39.07;;;20.00;;
21128;SDS011;10722;51.910;8.352;2024-01-10T14:45:23;42.37;;;19.03;;
21128;SDS011;10722;51.910;8.352;2024-01-10T14:48:08;43.37;;;21.33;;
21128;SDS011;10722;51.910;8.352;2024-01-10T14:50:53;41.30;;;21.10;;
21128;SDS011;10722;51.910;8.352;2024-01-10T14:53:38;41.77;;;20.63;;
21128;SDS011;10722;51.910;8.352;2024-01-10T14:56:23;43.33;;;21.27;;
21128;SDS011;10722;51.910;8.352;2024-01-10T14:59:10;42.20;;;21.77;;
21128;SDS011;10722;51.910;8.352;2024-01-10T15:01:55;43.40;;;22.33;;
21128;SDS011;10722;51.910;8.352;2024-01-10T15:04:40;41.90;;;21.77;;
21128;SDS011;10722;51.910;8.352;2024-01-10T15:07:26;47.60;;;22.70;;
21128;SDS011;10722;51.910;8.352;2024-01-10T15:10:11;45.63;;;22.00;;
21128;SDS011;10722;51.910;8.352;2024-01-10T15:12:56;46.03;;;23.53;;
21128;SDS011;10722;51.910;8.352;2024-01-10T15:15:41;44.37;;;23.07;;
21128;SDS011;10722;51.910;8.352;2024-01-10T15:18:25;51.23;;;25.67;;
21128;SDS011;10722;51.910;8.352;2024-01-10T15:21:11;54.57;;;26.33;;
21128;SDS011;10722;51.910;8.352;2024-01-10T15:23:57;47.77;;;24.50;;
21128;SDS011;10722;51.910;8.352;2024-01-10T15:26:42;49.30;;;23.93;;
21128;SDS011;10722;51.910;8.352;2024-01-10T15:29:28;51.50;;;24.60;;
21128;SDS011;10722;51.910;8.352;2024-01-10T15:32:13;50.17;;;23.70;;
21128;SDS011;10722;51.910;8.352;2024-01-10T15:34:58;50.27;;;25.23;;
21128;SDS011;10722;51.910;8.352;2024-01-10T15:37:44;53.00;;;26.90;;
21128;SDS011;10722;51.910;8.352;2024-01-10T15:40:29;57.83;;;26.47;;
21128;SDS011;10722;51.910;8.352;2024-01-10T15:43:14;54.27;;;27.07;;
21128;SDS011;10722;51.910;8.352;2024-01-10T15:45:59;47.97;;;25.80;;
21128;SDS011;10722;51.910;8.352;2024-01-10T15:48:44;53.63;;;26.97;;
21128;SDS011;10722;51.910;8.352;2024-01-10T15:51:30;56.90;;;27.77;;
21128;SDS011;10722;51.910;8.352;2024-01-10T15:54:15;50.70;;;26.50;;
21128;SDS011;10722;51.910;8.352;2024-01-10T15:57:00;55.33;;;27.77;;
21128;SDS011;10722;51.910;8.352;2024-01-10T15:59:45;57.73;;;27.30;;
21128;SDS011;10722;51.910;8.352;2024-01-10T16:02:30;54.53;;;27.50;;
21128;SDS011;10722;51.910;8.352;2024-01-10T16:05:15;58.50;;;30.97;;
21128;SDS011;10722;51.910;8.352;2024-01-10T16:08:01;57.13;;;28.23;;
21128;SDS011;10722;51.910;8.352;2024-01-10T16:10:46;59.40;;;28.63;;
21128;SDS011;10722;51.910;8.352;2024-01-10T16:13:31;55.07;;;27.73;;
21128;SDS011;10722;51.910;8.352;2024-01-10T16:16:19;60.20;;;29.57;;